sensor_id;sensor_type;location;lat;lon;timestamp;temperature;humidity
51011;DHT22;37038;50.182;8.624;2023-03-18T00:00:36;11.40;99.90
51011;DHT22;37038;50.182;8.624;2023-03-18T00:03:25;11.40;99.90
51011;DHT22;37038;50.182;8.624;2023-03-18T00:06:17;11.60;99.90
51011;DHT22;37038;50.182;8.624;2023-03-18T00:09:07;11.70;99.90
51011;DHT22;37038;50.182;8.624;2023-03-18T00:11:55;11.60;99.90
51011;DHT22;37038;50.182;8.624;2023-03-18T00:14:46;11.40;99.90
51011;DHT22;37038;50.182;8.624;2023-03-18T00:17:35;11.50;99.90
51011;DHT22;37038;50.182;8.624;2023-03-18T00:20:24;11.70;99.90
51011;DHT22;37038;50.182;8.624;2023-03-18T00:23:26;11.90;99.90
51011;DHT22;37038;50.182;8.624;2023-03-18T00:26:17;11.00;99.90
51011;DHT22;37038;50.182;8.624;2023-03-18T00:29:05;10.60;99.90
51011;DHT22;37038;50.182;8.624;2023-03-18T00:31:54;10.50;99.90
51011;DHT22;37038;50.182;8.624;2023-03-18T00:34:43;10.70;99.90
51011;DHT22;37038;50.182;8.624;2023-03-18T00:37:32;10.80;99.90
51011;DHT22;37038;50.182;8.624;2023-03-18T00:40:22;10.80;99.90
51011;DHT22;37038;50.182;8.624;2023-03-18T00:43:16;10.70;99.90
51011;DHT22;37038;50.182;8.624;2023-03-18T00:46:05;10.80;99.90
51011;DHT22;37038;50.182;8.624;2023-03-18T00:48:56;10.80;99.90
51011;DHT22;37038;50.182;8.624;2023-03-18T00:51:47;10.80;99.90
51011;DHT22;37038;50.182;8.624;2023-03-18T00:54:35;10.70;99.90
51011;DHT22;37038;50.182;8.624;2023-03-18T00:57:24;10.60;99.90
51011;DHT22;37038;50.182;8.624;2023-03-18T01:00:12;10.60;99.90
51011;DHT22;37038;50.182;8.624;2023-03-18T01:03:07;10.60;99.90
51011;DHT22;37038;50.182;8.624;2023-03-18T01:05:56;10.70;99.90
51011;DHT22;37038;50.182;8.624;2023-03-18T01:08:44;10.60;99.90
51011;DHT22;37038;50.182;8.624;2023-03-18T01:11:47;10.50;99.90
51011;DHT22;37038;50.182;8.624;2023-03-18T01:14:40;10.50;99.90
51011;DHT22;37038;50.182;8.624;2023-03-18T01:17:29;10.30;99.90
51011;DHT22;37038;50.182;8.624;2023-03-18T01:20:19;10.10;99.90
51011;DHT22;37038;50.182;8.624;2023-03-18T01:23:12;10.00;99.90
51011;DHT22;37038;50.182;8.624;2023-03-18T01:26:00;10.00;99.90
51011;DHT22;37038;50.182;8.624;2023-03-18T01:28:48;9.90;99.90
51011;DHT22;37038;50.182;8.624;2023-03-18T01:31:45;9.80;99.90
51011;DHT22;37038;50.182;8.624;2023-03-18T01:34:33;9.50;99.90
51011;DHT22;37038;50.182;8.624;2023-03-18T01:37:32;9.30;99.90
51011;DHT22;37038;50.182;8.624;2023-03-18T01:40:23;9.30;99.90
51011;DHT22;37038;50.182;8.624;2023-03-18T01:43:18;9.30;99.90
51011;DHT22;37038;50.182;8.624;2023-03-18T01:46:41;9.20;99.90
51011;DHT22;37038;50.182;8.624;2023-03-18T01:49:41;9.20;99.90
51011;DHT22;37038;50.182;8.624;2023-03-18T01:52:31;9.20;99.90
51011;DHT22;37038;50.182;8.624;2023-03-18T01:55:22;9.30;99.90
51011;DHT22;37038;50.182;8.624;2023-03-18T01:58:18;9.40;99.90
51011;DHT22;37038;50.182;8.624;2023-03-18T02:01:37;9.30;99.90
51011;DHT22;37038;50.182;8.624;2023-03-18T02:04:49;9.30;99.90
51011;DHT22;37038;50.182;8.624;2023-03-18T02:07:41;9.30;99.90
51011;DHT22;37038;50.182;8.624;2023-03-18T02:10:30;9.30;99.90
51011;DHT22;37038;50.182;8.624;2023-03-18T02:13:19;9.30;99.90
51011;DHT22;37038;50.182;8.624;2023-03-18T02:16:28;9.20;99.90
51011;DHT22;37038;50.182;8.624;2023-03-18T02:22:46;9.00;99.90
51011;DHT22;37038;50.182;8.624;2023-03-18T02:25:58;9.10;99.90
51011;DHT22;37038;50.182;8.624;2023-03-18T02:28:55;9.10;99.90
51011;DHT22;37038;50.182;8.624;2023-03-18T02:31:46;9.20;99.90
51011;DHT22;37038;50.182;8.624;2023-03-18T02:34:35;9.50;99.90
51011;DHT22;37038;50.182;8.624;2023-03-18T02:37:24;9.80;99.90
51011;DHT22;37038;50.182;8.624;2023-03-18T02:40:19;9.90;99.90
51011;DHT22;37038;50.182;8.624;2023-03-18T02:43:27;10.10;99.90
51011;DHT22;37038;50.182;8.624;2023-03-18T02:46:56;10.10;99.90
51011;DHT22;37038;50.182;8.624;2023-03-18T02:49:46;9.70;99.90
51011;DHT22;37038;50.182;8.624;2023-03-18T02:52:34;9.30;99.90
51011;DHT22;37038;50.182;8.624;2023-03-18T02:55:22;9.20;99.90
51011;DHT22;37038;50.182;8.624;2023-03-18T02:58:10;9.10;99.90
51011;DHT22;37038;50.182;8.624;2023-03-18T03:00:58;9.10;99.90
51011;DHT22;37038;50.182;8.624;2023-03-18T03:03:47;8.90;99.90
51011;DHT22;37038;50.182;8.624;2023-03-18T03:06:38;8.80;99.90
51011;DHT22;37038;50.182;8.624;2023-03-18T03:09:27;8.70;99.90
51011;DHT22;37038;50.182;8.624;2023-03-18T03:12:16;8.80;99.90
51011;DHT22;37038;50.182;8.624;2023-03-18T03:15:07;8.80;99.90
51011;DHT22;37038;50.182;8.624;2023-03-18T03:17:55;8.80;99.90
51011;DHT22;37038;50.182;8.624;2023-03-18T03:20:43;8.80;99.90
51011;DHT22;37038;50.182;8.624;2023-03-18T03:23:32;8.90;99.90
51011;DHT22;37038;50.182;8.624;2023-03-18T03:26:20;8.90;99.90
51011;DHT22;37038;50.182;8.624;2023-03-18T03:29:08;8.90;99.90
51011;DHT22;37038;50.182;8.624;2023-03-18T03:31:56;8.90;99.90
51011;DHT22;37038;50.182;8.624;2023-03-18T03:34:46;8.90;99.90
51011;DHT22;37038;50.182;8.624;2023-03-18T03:37:35;8.80;99.90
51011;DHT22;37038;50.182;8.624;2023-03-18T03:40:24;8.80;99.90
51011;DHT22;37038;50.182;8.624;2023-03-18T03:43:16;8.70;99.90
51011;DHT22;37038;50.182;8.624;2023-03-18T03:46:06;8.60;99.90
51011;DHT22;37038;50.182;8.624;2023-03-18T03:48:54;8.50;99.90
51011;DHT22;37038;50.182;8.624;2023-03-18T03:51:47;8.50;99.90
51011;DHT22;37038;50.182;8.624;2023-03-18T03:54:36;8.60;99.90
51011;DHT22;37038;50.182;8.624;2023-03-18T03:57:25;8.80;99.90
51011;DHT22;37038;50.182;8.624;2023-03-18T04:00:16;8.80;99.90
51011;DHT22;37038;50.182;8.624;2023-03-18T04:03:07;8.80;99.90
51011;DHT22;37038;50.182;8.624;2023-03-18T04:05:55;8.80;99.90
51011;DHT22;37038;50.182;8.624;2023-03-18T04:08:43;8.70;99.90
51011;DHT22;37038;50.182;8.624;2023-03-18T04:11:33;8.50;99.90
51011;DHT22;37038;50.182;8.624;2023-03-18T04:14:21;8.50;99.90
51011;DHT22;37038;50.182;8.624;2023-03-18T04:17:09;8.50;99.90
51011;DHT22;37038;50.182;8.624;2023-03-18T04:19:58;8.40;99.90
51011;DHT22;37038;50.182;8.624;2023-03-18T04:22:46;8.40;99.90
51011;DHT22;37038;50.182;8.624;2023-03-18T04:25:34;8.50;99.90
51011;DHT22;37038;50.182;8.624;2023-03-18T04:28:22;8.60;99.90
51011;DHT22;37038;50.182;8.624;2023-03-18T04:31:11;8.60;99.90
51011;DHT22;37038;50.182;8.624;2023-03-18T04:34:03;8.50;99.90
51011;DHT22;37038;50.182;8.624;2023-03-18T04:36:56;8.50;99.90
51011;DHT22;37038;50.182;8.624;2023-03-18T04:39:46;8.60;99.90
51011;DHT22;37038;50.182;8.624;2023-03-18T04:42:35;8.50;99.90
51011;DHT22;37038;50.182;8.624;2023-03-18T04:45:23;8.60;99.90
51011;DHT22;37038;50.182;8.624;2023-03-18T04:48:11;8.60;99.90
51011;DHT22;37038;50.182;8.624;2023-03-18T04:51:02;8.70;99.90
51011;DHT22;37038;50.182;8.624;2023-03-18T04:53:51;8.70;99.90
51011;DHT22;37038;50.182;8.624;2023-03-18T04:56:40;8.70;99.90
51011;DHT22;37038;50.182;8.624;2023-03-18T04:59:31;8.80;99.90
51011;DHT22;37038;50.182;8.624;2023-03-18T05:02:21;8.80;99.90
51011;DHT22;37038;50.182;8.624;2023-03-18T05:05:09;8.70;99.90
51011;DHT22;37038;50.182;8.624;2023-03-18T05:07:58;8.70;99.90
51011;DHT22;37038;50.182;8.624;2023-03-18T05:10:48;8.60;99.90
51011;DHT22;37038;50.182;8.624;2023-03-18T05:13:37;8.80;99.90
51011;DHT22;37038;50.182;8.624;2023-03-18T05:16:26;8.70;99.90
51011;DHT22;37038;50.182;8.624;2023-03-18T05:19:14;8.60;99.90
51011;DHT22;37038;50.182;8.624;2023-03-18T05:22:03;8.70;99.90
51011;DHT22;37038;50.182;8.624;2023-03-18T05:24:51;8.80;99.90
51011;DHT22;37038;50.182;8.624;2023-03-18T05:27:40;8.70;99.90
51011;DHT22;37038;50.182;8.624;2023-03-18T05:30:28;8.70;99.90
51011;DHT22;37038;50.182;8.624;2023-03-18T05:33:16;8.70;99.90
51011;DHT22;37038;50.182;8.624;2023-03-18T05:36:09;8.70;99.90
51011;DHT22;37038;50.182;8.624;2023-03-18T05:38:57;8.70;99.90
51011;DHT22;37038;50.182;8.624;2023-03-18T05:41:49;8.70;99.90
51011;DHT22;37038;50.182;8.624;2023-03-18T05:44:36;8.80;99.90
51011;DHT22;37038;50.182;8.624;2023-03-18T05:47:27;8.90;99.90
51011;DHT22;37038;50.182;8.624;2023-03-18T05:50:31;8.80;99.90
51011;DHT22;37038;50.182;8.624;2023-03-18T05:53:27;8.60;99.90
51011;DHT22;37038;50.182;8.624;2023-03-18T05:56:15;8.70;99.90
51011;DHT22;37038;50.182;8.624;2023-03-18T05:59:05;8.80;99.90
51011;DHT22;37038;50.182;8.624;2023-03-18T06:01:57;8.90;99.90
51011;DHT22;37038;50.182;8.624;2023-03-18T06:04:45;8.70;99.90
51011;DHT22;37038;50.182;8.624;2023-03-18T06:07:34;8.60;99.90
51011;DHT22;37038;50.182;8.624;2023-03-18T06:10:23;8.70;99.90
51011;DHT22;37038;50.182;8.624;2023-03-18T06:13:12;8.90;99.90
51011;DHT22;37038;50.182;8.624;2023-03-18T06:16:00;9.10;99.90
51011;DHT22;37038;50.182;8.624;2023-03-18T06:18:48;9.20;99.90
51011;DHT22;37038;50.182;8.624;2023-03-18T06:21:38;9.30;99.90
51011;DHT22;37038;50.182;8.624;2023-03-18T06:24:26;9.30;99.90
51011;DHT22;37038;50.182;8.624;2023-03-18T06:27:15;9.30;99.90
51011;DHT22;37038;50.182;8.624;2023-03-18T06:30:04;9.30;99.90
51011;DHT22;37038;50.182;8.624;2023-03-18T06:32:52;9.20;99.90
51011;DHT22;37038;50.182;8.624;2023-03-18T06:35:41;9.10;99.90
51011;DHT22;37038;50.182;8.624;2023-03-18T06:38:29;9.00;99.90
51011;DHT22;37038;50.182;8.624;2023-03-18T06:41:18;9.00;99.90
51011;DHT22;37038;50.182;8.624;2023-03-18T06:44:06;8.90;99.90
51011;DHT22;37038;50.182;8.624;2023-03-18T06:46:54;9.00;99.90
51011;DHT22;37038;50.182;8.624;2023-03-18T06:49:42;9.10;99.90
51011;DHT22;37038;50.182;8.624;2023-03-18T06:52:31;9.10;99.90
51011;DHT22;37038;50.182;8.624;2023-03-18T06:55:19;9.00;99.90
51011;DHT22;37038;50.182;8.624;2023-03-18T06:58:08;9.00;99.90
51011;DHT22;37038;50.182;8.624;2023-03-18T07:00:57;8.90;99.90
51011;DHT22;37038;50.182;8.624;2023-03-18T07:03:45;8.90;99.90
51011;DHT22;37038;50.182;8.624;2023-03-18T07:06:36;8.80;99.90
51011;DHT22;37038;50.182;8.624;2023-03-18T07:09:25;8.80;99.90
51011;DHT22;37038;50.182;8.624;2023-03-18T07:12:14;9.90;99.90
51011;DHT22;37038;50.182;8.624;2023-03-18T07:15:03;11.40;99.90
51011;DHT22;37038;50.182;8.624;2023-03-18T07:17:51;12.00;99.90
51011;DHT22;37038;50.182;8.624;2023-03-18T07:20:40;12.10;99.90
51011;DHT22;37038;50.182;8.624;2023-03-18T07:23:29;12.30;99.90
51011;DHT22;37038;50.182;8.624;2023-03-18T07:26:17;13.30;99.90
51011;DHT22;37038;50.182;8.624;2023-03-18T07:29:07;13.70;99.90
51011;DHT22;37038;50.182;8.624;2023-03-18T07:31:58;14.00;99.90
51011;DHT22;37038;50.182;8.624;2023-03-18T07:34:48;14.90;99.90
51011;DHT22;37038;50.182;8.624;2023-03-18T07:37:36;14.00;99.90
51011;DHT22;37038;50.182;8.624;2023-03-18T07:40:24;14.40;99.90
51011;DHT22;37038;50.182;8.624;2023-03-18T07:43:12;13.90;99.90
51011;DHT22;37038;50.182;8.624;2023-03-18T07:46:00;13.20;99.90
51011;DHT22;37038;50.182;8.624;2023-03-18T07:48:49;15.00;99.90
51011;DHT22;37038;50.182;8.624;2023-03-18T07:51:38;14.60;99.90
51011;DHT22;37038;50.182;8.624;2023-03-18T07:54:26;14.30;99.90
51011;DHT22;37038;50.182;8.624;2023-03-18T07:57:14;14.60;99.90
51011;DHT22;37038;50.182;8.624;2023-03-18T08:00:04;15.10;99.90
51011;DHT22;37038;50.182;8.624;2023-03-18T08:02:53;15.70;99.90
51011;DHT22;37038;50.182;8.624;2023-03-18T08:05:41;16.00;99.90
51011;DHT22;37038;50.182;8.624;2023-03-18T08:08:30;15.30;99.90
51011;DHT22;37038;50.182;8.624;2023-03-18T08:11:21;15.60;99.90
51011;DHT22;37038;50.182;8.624;2023-03-18T08:14:09;15.80;99.90
51011;DHT22;37038;50.182;8.624;2023-03-18T08:16:57;15.60;99.90
51011;DHT22;37038;50.182;8.624;2023-03-18T08:19:46;16.20;99.90
51011;DHT22;37038;50.182;8.624;2023-03-18T08:22:35;15.90;99.90
51011;DHT22;37038;50.182;8.624;2023-03-18T08:25:24;15.70;99.90
51011;DHT22;37038;50.182;8.624;2023-03-18T08:28:12;16.60;99.90
51011;DHT22;37038;50.182;8.624;2023-03-18T08:31:00;16.40;99.90
51011;DHT22;37038;50.182;8.624;2023-03-18T08:33:52;15.90;99.90
51011;DHT22;37038;50.182;8.624;2023-03-18T08:36:43;16.40;99.90
51011;DHT22;37038;50.182;8.624;2023-03-18T08:39:31;16.70;99.90
51011;DHT22;37038;50.182;8.624;2023-03-18T08:42:20;15.70;99.90
51011;DHT22;37038;50.182;8.624;2023-03-18T08:45:08;16.00;99.90
51011;DHT22;37038;50.182;8.624;2023-03-18T08:47:57;16.30;99.90
51011;DHT22;37038;50.182;8.624;2023-03-18T08:50:46;17.50;99.90
51011;DHT22;37038;50.182;8.624;2023-03-18T08:53:35;16.60;99.90
51011;DHT22;37038;50.182;8.624;2023-03-18T08:56:24;16.30;99.90
51011;DHT22;37038;50.182;8.624;2023-03-18T08:59:13;16.50;99.90
51011;DHT22;37038;50.182;8.624;2023-03-18T09:02:02;17.30;99.90
51011;DHT22;37038;50.182;8.624;2023-03-18T09:04:53;16.50;99.90
51011;DHT22;37038;50.182;8.624;2023-03-18T09:07:42;16.70;99.90
51011;DHT22;37038;50.182;8.624;2023-03-18T09:10:34;16.80;99.90
51011;DHT22;37038;50.182;8.624;2023-03-18T09:13:22;16.50;99.30
51011;DHT22;37038;50.182;8.624;2023-03-18T09:16:14;17.50;97.30
51011;DHT22;37038;50.182;8.624;2023-03-18T09:19:02;17.70;94.60
51011;DHT22;37038;50.182;8.624;2023-03-18T09:21:51;16.40;95.40
51011;DHT22;37038;50.182;8.624;2023-03-18T09:24:39;17.20;94.20
51011;DHT22;37038;50.182;8.624;2023-03-18T09:27:29;18.40;89.50
51011;DHT22;37038;50.182;8.624;2023-03-18T09:30:18;17.50;90.20
51011;DHT22;37038;50.182;8.624;2023-03-18T09:33:07;17.10;90.80
51011;DHT22;37038;50.182;8.624;2023-03-18T09:35:58;17.60;90.10
51011;DHT22;37038;50.182;8.624;2023-03-18T09:38:49;19.20;86.00
51011;DHT22;37038;50.182;8.624;2023-03-18T09:44:43;17.60;87.50
51011;DHT22;37038;50.182;8.624;2023-03-18T09:54:50;16.90;91.10
51011;DHT22;37038;50.182;8.624;2023-03-18T09:57:45;17.90;89.40
51011;DHT22;37038;50.182;8.624;2023-03-18T10:00:36;17.60;90.00
51011;DHT22;37038;50.182;8.624;2023-03-18T10:03:36;18.20;88.60
51011;DHT22;37038;50.182;8.624;2023-03-18T10:06:26;18.70;86.20
51011;DHT22;37038;50.182;8.624;2023-03-18T10:09:34;18.60;85.00
51011;DHT22;37038;50.182;8.624;2023-03-18T10:12:33;19.70;80.40
51011;DHT22;37038;50.182;8.624;2023-03-18T10:15:30;18.50;82.10
51011;DHT22;37038;50.182;8.624;2023-03-18T10:18:30;17.60;86.20
51011;DHT22;37038;50.182;8.624;2023-03-18T10:21:33;18.00;83.80
51011;DHT22;37038;50.182;8.624;2023-03-18T10:24:38;18.10;82.50
51011;DHT22;37038;50.182;8.624;2023-03-18T10:27:59;18.80;81.20
51011;DHT22;37038;50.182;8.624;2023-03-18T10:31:44;18.80;81.20
51011;DHT22;37038;50.182;8.624;2023-03-18T10:34:44;19.10;79.30
51011;DHT22;37038;50.182;8.624;2023-03-18T10:37:48;19.30;77.50
51011;DHT22;37038;50.182;8.624;2023-03-18T10:40:42;18.80;79.70
51011;DHT22;37038;50.182;8.624;2023-03-18T10:43:31;19.60;76.80
51011;DHT22;37038;50.182;8.624;2023-03-18T10:46:21;19.70;75.90
51011;DHT22;37038;50.182;8.624;2023-03-18T10:49:17;19.80;72.70
51011;DHT22;37038;50.182;8.624;2023-03-18T10:52:33;19.70;72.60
51011;DHT22;37038;50.182;8.624;2023-03-18T10:55:29;19.50;72.30
51011;DHT22;37038;50.182;8.624;2023-03-18T10:58:21;19.70;70.40
51011;DHT22;37038;50.182;8.624;2023-03-18T11:01:13;19.60;71.90
51011;DHT22;37038;50.182;8.624;2023-03-18T11:04:11;20.20;70.60
51011;DHT22;37038;50.182;8.624;2023-03-18T11:07:11;19.80;69.50
51011;DHT22;37038;50.182;8.624;2023-03-18T11:10:15;19.20;70.90
51011;DHT22;37038;50.182;8.624;2023-03-18T11:13:05;20.10;70.10
51011;DHT22;37038;50.182;8.624;2023-03-18T11:15:54;20.00;67.50
51011;DHT22;37038;50.182;8.624;2023-03-18T11:18:48;19.50;67.70
51011;DHT22;37038;50.182;8.624;2023-03-18T11:21:37;19.60;70.40
51011;DHT22;37038;50.182;8.624;2023-03-18T11:24:26;20.50;68.20
51011;DHT22;37038;50.182;8.624;2023-03-18T11:27:32;20.10;70.40
51011;DHT22;37038;50.182;8.624;2023-03-18T11:30:26;19.90;70.70
51011;DHT22;37038;50.182;8.624;2023-03-18T11:33:26;20.70;66.60
51011;DHT22;37038;50.182;8.624;2023-03-18T11:36:22;20.10;68.70
51011;DHT22;37038;50.182;8.624;2023-03-18T11:39:11;19.00;70.10
51011;DHT22;37038;50.182;8.624;2023-03-18T11:42:00;20.50;67.50
51011;DHT22;37038;50.182;8.624;2023-03-18T11:44:53;20.50;65.90
51011;DHT22;37038;50.182;8.624;2023-03-18T11:47:43;20.50;64.50
51011;DHT22;37038;50.182;8.624;2023-03-18T11:51:12;21.00;67.00
51011;DHT22;37038;50.182;8.624;2023-03-18T12:04:51;20.00;65.00
51011;DHT22;37038;50.182;8.624;2023-03-18T12:08:00;18.20;68.70
51011;DHT22;37038;50.182;8.624;2023-03-18T12:14:12;17.60;73.20
51011;DHT22;37038;50.182;8.624;2023-03-18T12:20:27;17.60;76.60
51011;DHT22;37038;50.182;8.624;2023-03-18T12:31:21;18.00;75.90
51011;DHT22;37038;50.182;8.624;2023-03-18T12:34:27;18.60;74.30
51011;DHT22;37038;50.182;8.624;2023-03-18T12:37:51;18.60;73.20
51011;DHT22;37038;50.182;8.624;2023-03-18T12:43:42;18.00;74.20
51011;DHT22;37038;50.182;8.624;2023-03-18T12:49:49;18.50;75.10
51011;DHT22;37038;50.182;8.624;2023-03-18T12:53:06;19.70;70.00
51011;DHT22;37038;50.182;8.624;2023-03-18T12:56:08;19.80;67.00
51011;DHT22;37038;50.182;8.624;2023-03-18T12:59:16;18.70;70.80
51011;DHT22;37038;50.182;8.624;2023-03-18T13:02:38;19.20;69.60
51011;DHT22;37038;50.182;8.624;2023-03-18T13:12:31;21.30;55.70
51011;DHT22;37038;50.182;8.624;2023-03-18T13:15:30;21.50;56.20
51011;DHT22;37038;50.182;8.624;2023-03-18T13:21:27;22.00;52.70
51011;DHT22;37038;50.182;8.624;2023-03-18T13:40:33;19.60;58.80
51011;DHT22;37038;50.182;8.624;2023-03-18T13:43:45;18.90;59.80
51011;DHT22;37038;50.182;8.624;2023-03-18T13:46:35;19.40;58.10
51011;DHT22;37038;50.182;8.624;2023-03-18T13:49:27;19.20;59.90
51011;DHT22;37038;50.182;8.624;2023-03-18T13:52:25;18.90;61.20
51011;DHT22;37038;50.182;8.624;2023-03-18T13:55:48;19.40;58.60
51011;DHT22;37038;50.182;8.624;2023-03-18T13:58:45;19.30;59.30
51011;DHT22;37038;50.182;8.624;2023-03-18T14:01:48;19.90;58.30
51011;DHT22;37038;50.182;8.624;2023-03-18T14:04:45;20.10;55.60
51011;DHT22;37038;50.182;8.624;2023-03-18T14:07:45;19.40;58.30
51011;DHT22;37038;50.182;8.624;2023-03-18T14:10:36;18.80;61.30
51011;DHT22;37038;50.182;8.624;2023-03-18T14:13:26;18.60;62.80
51011;DHT22;37038;50.182;8.624;2023-03-18T14:16:16;18.80;61.50
51011;DHT22;37038;50.182;8.624;2023-03-18T14:19:25;18.10;61.30
51011;DHT22;37038;50.182;8.624;2023-03-18T14:22:32;17.70;61.90
51011;DHT22;37038;50.182;8.624;2023-03-18T14:25:49;17.90;62.80
51011;DHT22;37038;50.182;8.624;2023-03-18T14:28:45;18.70;61.30
51011;DHT22;37038;50.182;8.624;2023-03-18T14:38:11;19.10;60.80
51011;DHT22;37038;50.182;8.624;2023-03-18T14:41:40;18.70;61.30
51011;DHT22;37038;50.182;8.624;2023-03-18T14:44:45;18.20;62.10
51011;DHT22;37038;50.182;8.624;2023-03-18T14:47:38;18.10;65.50
51011;DHT22;37038;50.182;8.624;2023-03-18T14:50:39;17.70;66.60
51011;DHT22;37038;50.182;8.624;2023-03-18T14:53:42;17.50;66.40
51011;DHT22;37038;50.182;8.624;2023-03-18T14:56:54;17.40;67.20
51011;DHT22;37038;50.182;8.624;2023-03-18T14:59:43;17.40;68.90
51011;DHT22;37038;50.182;8.624;2023-03-18T15:02:36;17.50;68.70
51011;DHT22;37038;50.182;8.624;2023-03-18T15:05:30;17.70;66.70
51011;DHT22;37038;50.182;8.624;2023-03-18T15:08:25;17.50;66.10
51011;DHT22;37038;50.182;8.624;2023-03-18T15:11:42;17.40;68.30
51011;DHT22;37038;50.182;8.624;2023-03-18T15:14:32;17.30;68.70
51011;DHT22;37038;50.182;8.624;2023-03-18T15:17:23;17.50;68.00
51011;DHT22;37038;50.182;8.624;2023-03-18T15:20:16;17.20;68.60
51011;DHT22;37038;50.182;8.624;2023-03-18T15:23:06;17.70;67.80
51011;DHT22;37038;50.182;8.624;2023-03-18T15:25:58;17.30;65.40
51011;DHT22;37038;50.182;8.624;2023-03-18T15:28:47;17.60;67.90
51011;DHT22;37038;50.182;8.624;2023-03-18T15:31:41;17.40;67.60
51011;DHT22;37038;50.182;8.624;2023-03-18T15:34:30;17.40;67.60
51011;DHT22;37038;50.182;8.624;2023-03-18T15:43:30;17.10;70.60
51011;DHT22;37038;50.182;8.624;2023-03-18T15:46:29;17.10;71.90
51011;DHT22;37038;50.182;8.624;2023-03-18T15:49:24;17.30;71.50
51011;DHT22;37038;50.182;8.624;2023-03-18T15:52:33;17.20;70.90
51011;DHT22;37038;50.182;8.624;2023-03-18T15:55:27;18.00;67.50
51011;DHT22;37038;50.182;8.624;2023-03-18T15:58:26;18.90;64.90
51011;DHT22;37038;50.182;8.624;2023-03-18T16:01:21;18.30;64.10
51011;DHT22;37038;50.182;8.624;2023-03-18T16:04:15;17.80;65.60
51011;DHT22;37038;50.182;8.624;2023-03-18T16:07:18;17.90;66.10
51011;DHT22;37038;50.182;8.624;2023-03-18T16:10:10;17.90;65.60
51011;DHT22;37038;50.182;8.624;2023-03-18T16:13:00;18.10;63.40
51011;DHT22;37038;50.182;8.624;2023-03-18T16:15:50;18.20;64.80
51011;DHT22;37038;50.182;8.624;2023-03-18T16:18:42;17.90;68.20
51011;DHT22;37038;50.182;8.624;2023-03-18T16:21:30;17.90;73.30
51011;DHT22;37038;50.182;8.624;2023-03-18T16:24:21;17.60;71.30
51011;DHT22;37038;50.182;8.624;2023-03-18T16:27:28;17.50;70.00
51011;DHT22;37038;50.182;8.624;2023-03-18T16:30:22;18.20;66.60
51011;DHT22;37038;50.182;8.624;2023-03-18T16:33:13;19.30;67.50
51011;DHT22;37038;50.182;8.624;2023-03-18T16:36:04;19.90;61.60
51011;DHT22;37038;50.182;8.624;2023-03-18T16:38:53;19.90;57.30
51011;DHT22;37038;50.182;8.624;2023-03-18T16:41:41;19.70;59.10
51011;DHT22;37038;50.182;8.624;2023-03-18T16:44:32;20.10;59.00
51011;DHT22;37038;50.182;8.624;2023-03-18T16:47:25;20.10;55.70
51011;DHT22;37038;50.182;8.624;2023-03-18T16:50:19;20.50;54.80
51011;DHT22;37038;50.182;8.624;2023-03-18T16:53:23;20.90;52.80
51011;DHT22;37038;50.182;8.624;2023-03-18T16:56:17;20.60;53.60
51011;DHT22;37038;50.182;8.624;2023-03-18T16:59:12;18.60;59.80
51011;DHT22;37038;50.182;8.624;2023-03-18T17:02:08;17.70;60.60
51011;DHT22;37038;50.182;8.624;2023-03-18T17:05:27;18.10;61.80
51011;DHT22;37038;50.182;8.624;2023-03-18T17:08:17;18.10;59.40
51011;DHT22;37038;50.182;8.624;2023-03-18T17:11:05;18.40;59.00
51011;DHT22;37038;50.182;8.624;2023-03-18T17:13:54;18.20;60.10
51011;DHT22;37038;50.182;8.624;2023-03-18T17:16:44;17.90;61.40
51011;DHT22;37038;50.182;8.624;2023-03-18T17:19:33;17.60;60.00
51011;DHT22;37038;50.182;8.624;2023-03-18T17:22:30;17.30;61.20
51011;DHT22;37038;50.182;8.624;2023-03-18T17:25:19;17.10;64.10
51011;DHT22;37038;50.182;8.624;2023-03-18T17:28:10;17.00;65.30
51011;DHT22;37038;50.182;8.624;2023-03-18T17:31:04;17.00;66.50
51011;DHT22;37038;50.182;8.624;2023-03-18T17:33:52;16.70;67.00
51011;DHT22;37038;50.182;8.624;2023-03-18T17:36:41;16.80;68.10
51011;DHT22;37038;50.182;8.624;2023-03-18T17:39:29;17.00;71.00
51011;DHT22;37038;50.182;8.624;2023-03-18T17:42:32;16.90;69.80
51011;DHT22;37038;50.182;8.624;2023-03-18T17:45:29;16.50;71.70
51011;DHT22;37038;50.182;8.624;2023-03-18T17:48:27;16.20;73.60
51011;DHT22;37038;50.182;8.624;2023-03-18T17:51:18;16.10;76.30
51011;DHT22;37038;50.182;8.624;2023-03-18T17:54:11;15.90;76.50
51011;DHT22;37038;50.182;8.624;2023-03-18T17:57:00;15.90;76.20
51011;DHT22;37038;50.182;8.624;2023-03-18T17:59:47;16.00;77.90
51011;DHT22;37038;50.182;8.624;2023-03-18T18:02:35;16.00;78.50
51011;DHT22;37038;50.182;8.624;2023-03-18T18:05:24;16.10;79.80
51011;DHT22;37038;50.182;8.624;2023-03-18T18:08:16;16.10;83.30
51011;DHT22;37038;50.182;8.624;2023-03-18T18:11:29;16.10;82.50
51011;DHT22;37038;50.182;8.624;2023-03-18T18:14:24;15.90;83.90
51011;DHT22;37038;50.182;8.624;2023-03-18T18:17:15;15.70;92.40
51011;DHT22;37038;50.182;8.624;2023-03-18T18:20:04;15.50;94.00
51011;DHT22;37038;50.182;8.624;2023-03-18T18:22:54;15.20;99.70
51011;DHT22;37038;50.182;8.624;2023-03-18T18:25:43;15.00;97.60
51011;DHT22;37038;50.182;8.624;2023-03-18T18:28:37;15.00;97.00
51011;DHT22;37038;50.182;8.624;2023-03-18T18:31:34;15.10;97.90
51011;DHT22;37038;50.182;8.624;2023-03-18T18:34:24;15.20;99.40
51011;DHT22;37038;50.182;8.624;2023-03-18T18:37:11;15.30;99.20
51011;DHT22;37038;50.182;8.624;2023-03-18T18:39:59;14.90;99.90
51011;DHT22;37038;50.182;8.624;2023-03-18T18:42:47;14.90;99.90
51011;DHT22;37038;50.182;8.624;2023-03-18T18:45:36;15.00;99.90
51011;DHT22;37038;50.182;8.624;2023-03-18T18:51:20;14.70;99.90
51011;DHT22;37038;50.182;8.624;2023-03-18T18:54:09;14.70;99.90
51011;DHT22;37038;50.182;8.624;2023-03-18T18:57:00;14.60;99.90
51011;DHT22;37038;50.182;8.624;2023-03-18T18:59:48;14.70;99.90
51011;DHT22;37038;50.182;8.624;2023-03-18T19:02:36;14.60;99.90
51011;DHT22;37038;50.182;8.624;2023-03-18T19:05:27;14.40;99.90
51011;DHT22;37038;50.182;8.624;2023-03-18T19:08:20;14.00;99.90
51011;DHT22;37038;50.182;8.624;2023-03-18T19:11:16;13.80;99.90
51011;DHT22;37038;50.182;8.624;2023-03-18T19:14:16;13.70;99.90
51011;DHT22;37038;50.182;8.624;2023-03-18T19:17:17;13.30;99.90
51011;DHT22;37038;50.182;8.624;2023-03-18T19:20:27;13.10;99.90
51011;DHT22;37038;50.182;8.624;2023-03-18T19:23:25;12.90;99.90
51011;DHT22;37038;50.182;8.624;2023-03-18T19:26:14;13.10;99.90
51011;DHT22;37038;50.182;8.624;2023-03-18T19:29:02;13.20;99.90
51011;DHT22;37038;50.182;8.624;2023-03-18T19:31:51;12.90;99.90
51011;DHT22;37038;50.182;8.624;2023-03-18T19:34:39;12.80;99.90
51011;DHT22;37038;50.182;8.624;2023-03-18T19:37:29;12.80;99.90
51011;DHT22;37038;50.182;8.624;2023-03-18T19:40:23;12.80;99.90
51011;DHT22;37038;50.182;8.624;2023-03-18T19:43:18;13.00;99.90
51011;DHT22;37038;50.182;8.624;2023-03-18T19:49:28;13.20;99.90